sensor_id;sensor_type;location;lat;lon;timestamp;temperature;humidity
38480;DHT22;62333;51.980;5.934;2022-12-17T00:01:47;3.00;89.90
38480;DHT22;62333;51.980;5.934;2022-12-17T00:04:31;3.00;90.00
38480;DHT22;62333;51.980;5.934;2022-12-17T00:07:15;3.00;89.90
38480;DHT22;62333;51.980;5.934;2022-12-17T00:09:59;3.00;89.90
38480;DHT22;62333;51.980;5.934;2022-12-17T00:12:46;2.90;90.00
38480;DHT22;62333;51.980;5.934;2022-12-17T00:15:30;2.80;90.00
38480;DHT22;62333;51.980;5.934;2022-12-17T00:18:13;2.80;90.00
38480;DHT22;62333;51.980;5.934;2022-12-17T00:20:59;2.90;90.00
38480;DHT22;62333;51.980;5.934;2022-12-17T00:23:44;2.80;90.00
38480;DHT22;62333;51.980;5.934;2022-12-17T00:26:28;2.80;90.00
38480;DHT22;62333;51.980;5.934;2022-12-17T00:29:13;2.80;90.00
38480;DHT22;62333;51.980;5.934;2022-12-17T00:31:57;2.90;90.00
38480;DHT22;62333;51.980;5.934;2022-12-17T00:34:42;2.90;89.90
38480;DHT22;62333;51.980;5.934;2022-12-17T00:37:26;2.90;89.80
38480;DHT22;62333;51.980;5.934;2022-12-17T00:40:11;2.90;89.80
38480;DHT22;62333;51.980;5.934;2022-12-17T00:43:04;2.90;89.70
38480;DHT22;62333;51.980;5.934;2022-12-17T00:45:48;2.90;89.70
38480;DHT22;62333;51.980;5.934;2022-12-17T00:48:33;2.90;89.70
38480;DHT22;62333;51.980;5.934;2022-12-17T00:51:17;2.90;89.80
38480;DHT22;62333;51.980;5.934;2022-12-17T00:54:01;2.90;89.80
38480;DHT22;62333;51.980;5.934;2022-12-17T00:56:45;2.90;90.10
38480;DHT22;62333;51.980;5.934;2022-12-17T00:59:29;2.90;89.60
38480;DHT22;62333;51.980;5.934;2022-12-17T01:02:13;2.90;89.30
38480;DHT22;62333;51.980;5.934;2022-12-17T01:04:57;2.90;89.30
38480;DHT22;62333;51.980;5.934;2022-12-17T01:07:42;2.90;89.10
38480;DHT22;62333;51.980;5.934;2022-12-17T01:10:26;2.90;89.10
38480;DHT22;62333;51.980;5.934;2022-12-17T01:13:30;2.80;89.20
38480;DHT22;62333;51.980;5.934;2022-12-17T01:16:14;2.80;89.30
38480;DHT22;62333;51.980;5.934;2022-12-17T01:18:59;2.80;89.30
38480;DHT22;62333;51.980;5.934;2022-12-17T01:21:44;2.80;89.30
38480;DHT22;62333;51.980;5.934;2022-12-17T01:24:28;2.70;89.50
38480;DHT22;62333;51.980;5.934;2022-12-17T01:27:13;2.70;89.60
38480;DHT22;62333;51.980;5.934;2022-12-17T01:29:57;2.70;89.50
38480;DHT22;62333;51.980;5.934;2022-12-17T01:32:41;2.80;89.30
38480;DHT22;62333;51.980;5.934;2022-12-17T01:35:25;2.80;89.20
38480;DHT22;62333;51.980;5.934;2022-12-17T01:38:15;2.80;89.10
38480;DHT22;62333;51.980;5.934;2022-12-17T01:41:00;2.80;89.10
38480;DHT22;62333;51.980;5.934;2022-12-17T01:43:44;2.80;89.20
38480;DHT22;62333;51.980;5.934;2022-12-17T01:46:32;2.70;89.20
38480;DHT22;62333;51.980;5.934;2022-12-17T01:49:20;2.70;89.30
38480;DHT22;62333;51.980;5.934;2022-12-17T01:52:06;2.80;89.20
38480;DHT22;62333;51.980;5.934;2022-12-17T01:54:50;2.80;89.20
38480;DHT22;62333;51.980;5.934;2022-12-17T01:57:35;2.70;89.10
38480;DHT22;62333;51.980;5.934;2022-12-17T02:00:19;2.80;89.10
38480;DHT22;62333;51.980;5.934;2022-12-17T02:03:04;2.70;89.10
38480;DHT22;62333;51.980;5.934;2022-12-17T02:06:20;2.80;89.30
38480;DHT22;62333;51.980;5.934;2022-12-17T02:10:12;2.70;89.10
38480;DHT22;62333;51.980;5.934;2022-12-17T02:12:33;2.70;89.00
38480;DHT22;62333;51.980;5.934;2022-12-17T02:15:36;2.70;89.00
38480;DHT22;62333;51.980;5.934;2022-12-17T02:18:30;2.70;89.00
38480;DHT22;62333;51.980;5.934;2022-12-17T02:21:15;2.70;89.10
38480;DHT22;62333;51.980;5.934;2022-12-17T02:27:23;2.70;88.70
38480;DHT22;62333;51.980;5.934;2022-12-17T02:30:08;2.70;88.70
38480;DHT22;62333;51.980;5.934;2022-12-17T02:32:53;2.60;88.60
38480;DHT22;62333;51.980;5.934;2022-12-17T02:35:49;2.60;88.80
38480;DHT22;62333;51.980;5.934;2022-12-17T02:38:34;2.50;88.70
38480;DHT22;62333;51.980;5.934;2022-12-17T02:41:25;2.50;88.80
38480;DHT22;62333;51.980;5.934;2022-12-17T02:44:12;2.50;88.70
38480;DHT22;62333;51.980;5.934;2022-12-17T02:46:57;2.50;88.70
38480;DHT22;62333;51.980;5.934;2022-12-17T02:49:42;2.50;88.70
38480;DHT22;62333;51.980;5.934;2022-12-17T02:52:27;2.50;88.70
38480;DHT22;62333;51.980;5.934;2022-12-17T02:55:11;2.50;88.60
38480;DHT22;62333;51.980;5.934;2022-12-17T02:57:55;2.50;88.60
38480;DHT22;62333;51.980;5.934;2022-12-17T03:00:39;2.40;88.60
38480;DHT22;62333;51.980;5.934;2022-12-17T03:03:23;2.40;88.70
38480;DHT22;62333;51.980;5.934;2022-12-17T03:06:07;2.40;88.70
38480;DHT22;62333;51.980;5.934;2022-12-17T03:08:52;2.40;88.60
38480;DHT22;62333;51.980;5.934;2022-12-17T03:11:36;2.40;88.70
38480;DHT22;62333;51.980;5.934;2022-12-17T03:14:20;2.30;88.70
38480;DHT22;62333;51.980;5.934;2022-12-17T03:17:04;2.30;88.80
38480;DHT22;62333;51.980;5.934;2022-12-17T03:19:48;2.30;88.90
38480;DHT22;62333;51.980;5.934;2022-12-17T03:22:32;2.40;88.90
38480;DHT22;62333;51.980;5.934;2022-12-17T03:25:36;2.30;88.90
38480;DHT22;62333;51.980;5.934;2022-12-17T03:28:20;2.30;88.90
38480;DHT22;62333;51.980;5.934;2022-12-17T03:31:04;2.30;89.10
38480;DHT22;62333;51.980;5.934;2022-12-17T03:33:49;2.30;89.10
38480;DHT22;62333;51.980;5.934;2022-12-17T03:36:33;2.30;89.70
38480;DHT22;62333;51.980;5.934;2022-12-17T03:39:17;2.20;89.10
38480;DHT22;62333;51.980;5.934;2022-12-17T03:42:01;2.30;89.20
38480;DHT22;62333;51.980;5.934;2022-12-17T03:44:45;2.30;89.20
38480;DHT22;62333;51.980;5.934;2022-12-17T03:47:29;2.30;89.10
38480;DHT22;62333;51.980;5.934;2022-12-17T03:50:13;2.30;89.10
38480;DHT22;62333;51.980;5.934;2022-12-17T03:52:59;2.30;89.00
38480;DHT22;62333;51.980;5.934;2022-12-17T03:56:00;2.30;89.00
38480;DHT22;62333;51.980;5.934;2022-12-17T03:58:44;2.30;89.00
38480;DHT22;62333;51.980;5.934;2022-12-17T04:01:28;2.30;88.90
38480;DHT22;62333;51.980;5.934;2022-12-17T04:04:12;2.30;88.60
38480;DHT22;62333;51.980;5.934;2022-12-17T04:06:56;2.30;88.60
38480;DHT22;62333;51.980;5.934;2022-12-17T04:09:40;2.20;88.50
38480;DHT22;62333;51.980;5.934;2022-12-17T04:12:24;2.20;88.60
38480;DHT22;62333;51.980;5.934;2022-12-17T04:15:08;2.20;88.50
38480;DHT22;62333;51.980;5.934;2022-12-17T04:17:52;2.10;88.40
38480;DHT22;62333;51.980;5.934;2022-12-17T04:20:37;2.00;89.10
38480;DHT22;62333;51.980;5.934;2022-12-17T04:23:21;2.00;88.60
38480;DHT22;62333;51.980;5.934;2022-12-17T04:26:05;2.00;88.60
38480;DHT22;62333;51.980;5.934;2022-12-17T04:28:49;2.00;88.40
38480;DHT22;62333;51.980;5.934;2022-12-17T04:31:33;2.00;88.40
38480;DHT22;62333;51.980;5.934;2022-12-17T04:34:17;2.00;88.30
38480;DHT22;62333;51.980;5.934;2022-12-17T04:37:01;2.00;88.20
38480;DHT22;62333;51.980;5.934;2022-12-17T04:39:45;2.00;88.20
38480;DHT22;62333;51.980;5.934;2022-12-17T04:42:29;1.90;88.10
38480;DHT22;62333;51.980;5.934;2022-12-17T04:45:13;1.90;88.20
38480;DHT22;62333;51.980;5.934;2022-12-17T04:48:05;1.90;88.20
38480;DHT22;62333;51.980;5.934;2022-12-17T04:50:49;1.90;88.20
38480;DHT22;62333;51.980;5.934;2022-12-17T04:53:41;1.90;88.20
38480;DHT22;62333;51.980;5.934;2022-12-17T04:56:26;1.90;88.20
38480;DHT22;62333;51.980;5.934;2022-12-17T04:59:10;1.90;88.20
38480;DHT22;62333;51.980;5.934;2022-12-17T05:01:54;1.90;88.20
38480;DHT22;62333;51.980;5.934;2022-12-17T05:04:38;1.80;88.30
38480;DHT22;62333;51.980;5.934;2022-12-17T05:07:22;1.80;88.30
38480;DHT22;62333;51.980;5.934;2022-12-17T05:10:07;1.70;88.40
38480;DHT22;62333;51.980;5.934;2022-12-17T05:13:00;1.70;88.30
38480;DHT22;62333;51.980;5.934;2022-12-17T05:15:45;1.70;88.40
38480;DHT22;62333;51.980;5.934;2022-12-17T05:18:30;1.60;88.40
38480;DHT22;62333;51.980;5.934;2022-12-17T05:21:14;1.50;88.50
38480;DHT22;62333;51.980;5.934;2022-12-17T05:23:59;1.50;88.70
38480;DHT22;62333;51.980;5.934;2022-12-17T05:26:43;1.60;88.70
38480;DHT22;62333;51.980;5.934;2022-12-17T05:29:27;1.70;88.70
38480;DHT22;62333;51.980;5.934;2022-12-17T05:32:11;1.60;88.60
38480;DHT22;62333;51.980;5.934;2022-12-17T05:34:56;1.60;88.70
38480;DHT22;62333;51.980;5.934;2022-12-17T05:37:40;1.70;88.70
38480;DHT22;62333;51.980;5.934;2022-12-17T05:40:24;1.70;88.60
38480;DHT22;62333;51.980;5.934;2022-12-17T05:43:10;1.70;88.60
38480;DHT22;62333;51.980;5.934;2022-12-17T05:45:54;1.70;88.60
38480;DHT22;62333;51.980;5.934;2022-12-17T05:48:39;1.60;88.60
38480;DHT22;62333;51.980;5.934;2022-12-17T05:51:22;1.70;88.70
38480;DHT22;62333;51.980;5.934;2022-12-17T05:54:07;1.70;88.60
38480;DHT22;62333;51.980;5.934;2022-12-17T05:56:51;1.70;88.60
38480;DHT22;62333;51.980;5.934;2022-12-17T05:59:35;1.70;88.60
38480;DHT22;62333;51.980;5.934;2022-12-17T06:02:19;1.70;88.60
38480;DHT22;62333;51.980;5.934;2022-12-17T06:05:03;1.70;88.50
38480;DHT22;62333;51.980;5.934;2022-12-17T06:07:47;1.70;88.60
38480;DHT22;62333;51.980;5.934;2022-12-17T06:10:31;1.80;88.50
38480;DHT22;62333;51.980;5.934;2022-12-17T06:13:15;1.80;88.40
38480;DHT22;62333;51.980;5.934;2022-12-17T06:15:59;1.90;88.20
38480;DHT22;62333;51.980;5.934;2022-12-17T06:18:43;1.80;88.20
38480;DHT22;62333;51.980;5.934;2022-12-17T06:21:27;1.80;88.20
38480;DHT22;62333;51.980;5.934;2022-12-17T06:24:11;1.80;88.20
38480;DHT22;62333;51.980;5.934;2022-12-17T06:26:55;1.80;88.30
38480;DHT22;62333;51.980;5.934;2022-12-17T06:29:39;1.70;88.40
38480;DHT22;62333;51.980;5.934;2022-12-17T06:32:24;1.70;88.40
38480;DHT22;62333;51.980;5.934;2022-12-17T06:35:08;1.70;88.60
38480;DHT22;62333;51.980;5.934;2022-12-17T06:38:02;1.70;88.70
38480;DHT22;62333;51.980;5.934;2022-12-17T06:40:47;1.80;88.60
38480;DHT22;62333;51.980;5.934;2022-12-17T06:43:31;1.80;88.50
38480;DHT22;62333;51.980;5.934;2022-12-17T06:46:15;1.90;88.40
38480;DHT22;62333;51.980;5.934;2022-12-17T06:48:59;1.90;88.30
38480;DHT22;62333;51.980;5.934;2022-12-17T06:51:43;2.00;88.20
38480;DHT22;62333;51.980;5.934;2022-12-17T06:54:28;2.10;88.10
38480;DHT22;62333;51.980;5.934;2022-12-17T06:57:12;2.10;88.00
38480;DHT22;62333;51.980;5.934;2022-12-17T06:59:56;2.10;88.10
38480;DHT22;62333;51.980;5.934;2022-12-17T07:02:40;2.10;88.00
38480;DHT22;62333;51.980;5.934;2022-12-17T07:05:24;2.10;88.00
38480;DHT22;62333;51.980;5.934;2022-12-17T07:08:08;2.10;87.80
38480;DHT22;62333;51.980;5.934;2022-12-17T07:10:53;2.10;88.00
38480;DHT22;62333;51.980;5.934;2022-12-17T07:13:36;2.10;87.90
38480;DHT22;62333;51.980;5.934;2022-12-17T07:16:20;2.20;87.90
38480;DHT22;62333;51.980;5.934;2022-12-17T07:19:04;2.10;87.80
38480;DHT22;62333;51.980;5.934;2022-12-17T07:21:48;2.20;87.90
38480;DHT22;62333;51.980;5.934;2022-12-17T07:24:32;2.20;87.70
38480;DHT22;62333;51.980;5.934;2022-12-17T07:27:16;2.20;87.60
38480;DHT22;62333;51.980;5.934;2022-12-17T07:30:00;2.20;87.60
38480;DHT22;62333;51.980;5.934;2022-12-17T07:32:44;2.20;87.60
38480;DHT22;62333;51.980;5.934;2022-12-17T07:35:28;2.20;87.60
38480;DHT22;62333;51.980;5.934;2022-12-17T07:38:12;2.10;87.60
38480;DHT22;62333;51.980;5.934;2022-12-17T07:40:58;2.20;87.60
38480;DHT22;62333;51.980;5.934;2022-12-17T07:43:42;2.20;87.60
38480;DHT22;62333;51.980;5.934;2022-12-17T07:46:27;2.20;87.70
38480;DHT22;62333;51.980;5.934;2022-12-17T07:49:11;2.10;88.10
38480;DHT22;62333;51.980;5.934;2022-12-17T07:51:55;2.10;88.40
38480;DHT22;62333;51.980;5.934;2022-12-17T07:54:39;2.10;88.40
38480;DHT22;62333;51.980;5.934;2022-12-17T07:57:24;2.10;88.40
38480;DHT22;62333;51.980;5.934;2022-12-17T08:00:08;2.10;88.70
38480;DHT22;62333;51.980;5.934;2022-12-17T08:02:57;2.10;89.30
38480;DHT22;62333;51.980;5.934;2022-12-17T08:05:41;2.00;89.60
38480;DHT22;62333;51.980;5.934;2022-12-17T08:08:25;1.90;89.90
38480;DHT22;62333;51.980;5.934;2022-12-17T08:11:09;1.90;90.00
38480;DHT22;62333;51.980;5.934;2022-12-17T08:13:53;1.90;90.00
38480;DHT22;62333;51.980;5.934;2022-12-17T08:16:37;1.90;89.90
38480;DHT22;62333;51.980;5.934;2022-12-17T08:19:21;1.90;89.90
38480;DHT22;62333;51.980;5.934;2022-12-17T08:22:05;1.90;89.80
38480;DHT22;62333;51.980;5.934;2022-12-17T08:24:49;1.90;89.70
38480;DHT22;62333;51.980;5.934;2022-12-17T08:27:33;1.90;89.80
38480;DHT22;62333;51.980;5.934;2022-12-17T08:30:31;1.90;89.90
38480;DHT22;62333;51.980;5.934;2022-12-17T08:33:15;2.00;89.90
38480;DHT22;62333;51.980;5.934;2022-12-17T08:35:59;2.00;89.80
38480;DHT22;62333;51.980;5.934;2022-12-17T08:38:44;2.00;89.70
38480;DHT22;62333;51.980;5.934;2022-12-17T08:41:28;2.00;89.70
38480;DHT22;62333;51.980;5.934;2022-12-17T08:44:12;2.00;89.70
38480;DHT22;62333;51.980;5.934;2022-12-17T08:46:56;2.00;89.70
38480;DHT22;62333;51.980;5.934;2022-12-17T08:49:40;2.00;89.70
38480;DHT22;62333;51.980;5.934;2022-12-17T08:52:24;2.00;89.60
38480;DHT22;62333;51.980;5.934;2022-12-17T08:55:08;2.00;89.40
38480;DHT22;62333;51.980;5.934;2022-12-17T08:57:54;2.00;89.40
38480;DHT22;62333;51.980;5.934;2022-12-17T09:00:38;2.10;89.30
38480;DHT22;62333;51.980;5.934;2022-12-17T09:03:23;2.10;89.10
38480;DHT22;62333;51.980;5.934;2022-12-17T09:06:07;2.20;88.90
38480;DHT22;62333;51.980;5.934;2022-12-17T09:08:51;2.10;88.80
38480;DHT22;62333;51.980;5.934;2022-12-17T09:11:35;2.20;88.80
38480;DHT22;62333;51.980;5.934;2022-12-17T09:14:19;2.20;88.70
38480;DHT22;62333;51.980;5.934;2022-12-17T09:17:03;2.20;88.70
38480;DHT22;62333;51.980;5.934;2022-12-17T09:19:47;2.30;88.50
38480;DHT22;62333;51.980;5.934;2022-12-17T09:22:31;2.30;88.30
38480;DHT22;62333;51.980;5.934;2022-12-17T09:25:15;2.20;88.20
38480;DHT22;62333;51.980;5.934;2022-12-17T09:28:00;2.20;87.50
38480;DHT22;62333;51.980;5.934;2022-12-17T09:30:45;2.20;87.80
38480;DHT22;62333;51.980;5.934;2022-12-17T09:33:29;2.20;87.90
38480;DHT22;62333;51.980;5.934;2022-12-17T09:36:13;2.30;87.80
38480;DHT22;62333;51.980;5.934;2022-12-17T09:38:57;2.30;88.30
38480;DHT22;62333;51.980;5.934;2022-12-17T09:44:55;2.20;87.20
38480;DHT22;62333;51.980;5.934;2022-12-17T09:48:04;2.10;87.20
38480;DHT22;62333;51.980;5.934;2022-12-17T09:50:51;2.10;87.30
38480;DHT22;62333;51.980;5.934;2022-12-17T09:53:47;2.10;87.20
38480;DHT22;62333;51.980;5.934;2022-12-17T09:56:32;2.20;87.30
38480;DHT22;62333;51.980;5.934;2022-12-17T09:59:32;2.20;87.20
38480;DHT22;62333;51.980;5.934;2022-12-17T10:02:19;2.30;87.10
38480;DHT22;62333;51.980;5.934;2022-12-17T10:05:25;2.20;86.60
38480;DHT22;62333;51.980;5.934;2022-12-17T10:08:14;2.20;86.70
38480;DHT22;62333;51.980;5.934;2022-12-17T10:11:28;2.10;86.80
38480;DHT22;62333;51.980;5.934;2022-12-17T10:14:22;2.10;86.80
38480;DHT22;62333;51.980;5.934;2022-12-17T10:17:21;2.10;86.80
38480;DHT22;62333;51.980;5.934;2022-12-17T10:23:22;2.20;87.10
38480;DHT22;62333;51.980;5.934;2022-12-17T10:26:06;2.20;87.00
38480;DHT22;62333;51.980;5.934;2022-12-17T10:28:50;2.30;87.00
38480;DHT22;62333;51.980;5.934;2022-12-17T10:31:34;2.30;86.90
38480;DHT22;62333;51.980;5.934;2022-12-17T10:34:19;2.30;86.80
38480;DHT22;62333;51.980;5.934;2022-12-17T10:37:04;2.30;86.60
38480;DHT22;62333;51.980;5.934;2022-12-17T10:39:57;2.20;87.40
38480;DHT22;62333;51.980;5.934;2022-12-17T10:42:43;2.10;86.90
38480;DHT22;62333;51.980;5.934;2022-12-17T10:45:31;2.10;86.70
38480;DHT22;62333;51.980;5.934;2022-12-17T10:48:26;2.00;87.10
38480;DHT22;62333;51.980;5.934;2022-12-17T10:51:29;2.00;87.20
38480;DHT22;62333;51.980;5.934;2022-12-17T10:54:29;2.00;87.30
38480;DHT22;62333;51.980;5.934;2022-12-17T10:57:34;2.10;87.20
38480;DHT22;62333;51.980;5.934;2022-12-17T11:00:29;2.10;87.00
38480;DHT22;62333;51.980;5.934;2022-12-17T11:09:13;1.90;87.40
38480;DHT22;62333;51.980;5.934;2022-12-17T11:12:01;1.80;87.60
38480;DHT22;62333;51.980;5.934;2022-12-17T11:14:50;1.80;87.80
38480;DHT22;62333;51.980;5.934;2022-12-17T11:17:37;1.90;87.90
38480;DHT22;62333;51.980;5.934;2022-12-17T11:20:25;1.90;87.90
38480;DHT22;62333;51.980;5.934;2022-12-17T11:23:27;2.00;87.90
38480;DHT22;62333;51.980;5.934;2022-12-17T11:26:16;2.10;87.80
38480;DHT22;62333;51.980;5.934;2022-12-17T11:29:01;2.10;87.60
38480;DHT22;62333;51.980;5.934;2022-12-17T11:32:05;2.20;87.50
38480;DHT22;62333;51.980;5.934;2022-12-17T11:35:18;2.20;87.30
38480;DHT22;62333;51.980;5.934;2022-12-17T11:44:24;2.20;87.50
38480;DHT22;62333;51.980;5.934;2022-12-17T11:56:38;2.20;87.30
38480;DHT22;62333;51.980;5.934;2022-12-17T11:59:39;2.10;87.30
38480;DHT22;62333;51.980;5.934;2022-12-17T12:02:54;2.10;87.30
38480;DHT22;62333;51.980;5.934;2022-12-17T12:05:58;2.10;87.30
38480;DHT22;62333;51.980;5.934;2022-12-17T12:12:14;2.00;87.30
38480;DHT22;62333;51.980;5.934;2022-12-17T12:18:14;2.00;87.50
38480;DHT22;62333;51.980;5.934;2022-12-17T12:21:58;2.00;87.60
38480;DHT22;62333;51.980;5.934;2022-12-17T12:30:51;1.90;87.40
38480;DHT22;62333;51.980;5.934;2022-12-17T12:36:24;2.00;87.30
38480;DHT22;62333;51.980;5.934;2022-12-17T12:39:12;1.80;87.50
38480;DHT22;62333;51.980;5.934;2022-12-17T12:42:32;1.80;87.80
38480;DHT22;62333;51.980;5.934;2022-12-17T12:48:54;1.80;87.80
38480;DHT22;62333;51.980;5.934;2022-12-17T12:51:40;1.80;87.70
38480;DHT22;62333;51.980;5.934;2022-12-17T12:54:30;1.80;87.80
38480;DHT22;62333;51.980;5.934;2022-12-17T13:00:38;1.80;87.90
38480;DHT22;62333;51.980;5.934;2022-12-17T13:03:33;1.80;87.90
38480;DHT22;62333;51.980;5.934;2022-12-17T13:11:49;1.80;87.80
38480;DHT22;62333;51.980;5.934;2022-12-17T13:14:23;1.80;87.80
38480;DHT22;62333;51.980;5.934;2022-12-17T13:16:54;1.80;87.90
38480;DHT22;62333;51.980;5.934;2022-12-17T13:24:43;1.80;87.90
38480;DHT22;62333;51.980;5.934;2022-12-17T13:30:20;1.70;88.00
38480;DHT22;62333;51.980;5.934;2022-12-17T13:38:58;1.70;88.00
38480;DHT22;62333;51.980;5.934;2022-12-17T13:41:30;1.70;88.00
38480;DHT22;62333;51.980;5.934;2022-12-17T13:44:01;1.60;88.00
38480;DHT22;62333;51.980;5.934;2022-12-17T13:46:39;1.60;88.10
38480;DHT22;62333;51.980;5.934;2022-12-17T13:49:19;1.60;88.20
38480;DHT22;62333;51.980;5.934;2022-12-17T13:51:45;1.70;88.20
38480;DHT22;62333;51.980;5.934;2022-12-17T13:54:15;1.70;88.10
38480;DHT22;62333;51.980;5.934;2022-12-17T13:56:42;1.70;88.00
38480;DHT22;62333;51.980;5.934;2022-12-17T13:59:22;1.70;88.00
38480;DHT22;62333;51.980;5.934;2022-12-17T14:01:52;1.70;88.70
38480;DHT22;62333;51.980;5.934;2022-12-17T14:04:24;1.70;88.00
38480;DHT22;62333;51.980;5.934;2022-12-17T14:06:51;1.80;88.00
38480;DHT22;62333;51.980;5.934;2022-12-17T14:09:20;1.80;87.80
38480;DHT22;62333;51.980;5.934;2022-12-17T14:11:47;1.80;87.90
38480;DHT22;62333;51.980;5.934;2022-12-17T14:16:59;1.80;87.80
38480;DHT22;62333;51.980;5.934;2022-12-17T14:19:26;1.80;87.80
38480;DHT22;62333;51.980;5.934;2022-12-17T14:21:53;1.70;87.60
38480;DHT22;62333;51.980;5.934;2022-12-17T14:24:22;1.80;87.70
38480;DHT22;62333;51.980;5.934;2022-12-17T14:26:57;1.80;87.60
38480;DHT22;62333;51.980;5.934;2022-12-17T14:29:28;1.80;87.50
38480;DHT22;62333;51.980;5.934;2022-12-17T14:31:57;1.80;87.60
38480;DHT22;62333;51.980;5.934;2022-12-17T14:34:23;1.80;87.50
38480;DHT22;62333;51.980;5.934;2022-12-17T14:36:57;1.80;87.40
38480;DHT22;62333;51.980;5.934;2022-12-17T14:39:29;1.80;87.40
38480;DHT22;62333;51.980;5.934;2022-12-17T14:41:56;1.70;87.40
38480;DHT22;62333;51.980;5.934;2022-12-17T14:47:39;1.60;87.40
38480;DHT22;62333;51.980;5.934;2022-12-17T14:52:41;1.50;87.60
38480;DHT22;62333;51.980;5.934;2022-12-17T14:57:53;1.50;87.80
38480;DHT22;62333;51.980;5.934;2022-12-17T15:00:19;1.50;88.00
38480;DHT22;62333;51.980;5.934;2022-12-17T15:02:53;1.40;88.10
38480;DHT22;62333;51.980;5.934;2022-12-17T15:05:19;1.40;88.10
38480;DHT22;62333;51.980;5.934;2022-12-17T15:07:45;1.30;88.10
38480;DHT22;62333;51.980;5.934;2022-12-17T15:10:13;1.30;88.20
38480;DHT22;62333;51.980;5.934;2022-12-17T15:12:41;1.20;88.40
38480;DHT22;62333;51.980;5.934;2022-12-17T15:15:10;1.20;88.60
38480;DHT22;62333;51.980;5.934;2022-12-17T15:17:36;1.10;88.60
38480;DHT22;62333;51.980;5.934;2022-12-17T15:20:02;1.10;88.60
38480;DHT22;62333;51.980;5.934;2022-12-17T15:22:28;1.10;88.60
38480;DHT22;62333;51.980;5.934;2022-12-17T15:24:54;1.10;88.60
38480;DHT22;62333;51.980;5.934;2022-12-17T15:27:19;1.20;88.70
38480;DHT22;62333;51.980;5.934;2022-12-17T15:29:45;1.10;88.60
38480;DHT22;62333;51.980;5.934;2022-12-17T15:32:21;1.10;88.60
38480;DHT22;62333;51.980;5.934;2022-12-17T15:34:47;1.10;88.70
38480;DHT22;62333;51.980;5.934;2022-12-17T15:37:14;1.10;88.70
38480;DHT22;62333;51.980;5.934;2022-12-17T15:39:40;1.00;88.70
38480;DHT22;62333;51.980;5.934;2022-12-17T15:42:07;1.00;88.80
38480;DHT22;62333;51.980;5.934;2022-12-17T15:44:51;1.00;88.80
38480;DHT22;62333;51.980;5.934;2022-12-17T15:47:17;0.90;88.90
38480;DHT22;62333;51.980;5.934;2022-12-17T15:49:43;1.00;89.00
38480;DHT22;62333;51.980;5.934;2022-12-17T15:52:09;1.00;89.00
38480;DHT22;62333;51.980;5.934;2022-12-17T15:54:35;1.00;89.10
38480;DHT22;62333;51.980;5.934;2022-12-17T15:57:01;1.00;89.00
38480;DHT22;62333;51.980;5.934;2022-12-17T15:59:27;0.90;89.00
38480;DHT22;62333;51.980;5.934;2022-12-17T16:01:52;0.90;89.10
38480;DHT22;62333;51.980;5.934;2022-12-17T16:04:18;0.90;89.20
38480;DHT22;62333;51.980;5.934;2022-12-17T16:06:43;0.90;89.20
38480;DHT22;62333;51.980;5.934;2022-12-17T16:09:09;0.80;89.20
38480;DHT22;62333;51.980;5.934;2022-12-17T16:11:35;0.90;89.40
38480;DHT22;62333;51.980;5.934;2022-12-17T16:14:00;0.80;89.40
38480;DHT22;62333;51.980;5.934;2022-12-17T16:16:28;0.80;89.40
38480;DHT22;62333;51.980;5.934;2022-12-17T16:18:54;0.90;89.40
38480;DHT22;62333;51.980;5.934;2022-12-17T16:21:20;0.80;89.40
38480;DHT22;62333;51.980;5.934;2022-12-17T16:23:45;0.90;89.40
38480;DHT22;62333;51.980;5.934;2022-12-17T16:26:11;0.90;89.30
38480;DHT22;62333;51.980;5.934;2022-12-17T16:28:37;0.90;89.20
38480;DHT22;62333;51.980;5.934;2022-12-17T16:31:07;0.90;89.20
38480;DHT22;62333;51.980;5.934;2022-12-17T16:33:35;0.90;89.20
38480;DHT22;62333;51.980;5.934;2022-12-17T16:36:01;0.90;89.10
38480;DHT22;62333;51.980;5.934;2022-12-17T16:38:27;0.90;88.90
38480;DHT22;62333;51.980;5.934;2022-12-17T16:40:58;0.90;88.90
38480;DHT22;62333;51.980;5.934;2022-12-17T16:43:25;0.90;88.90
38480;DHT22;62333;51.980;5.934;2022-12-17T16:45:52;0.90;89.00
38480;DHT22;62333;51.980;5.934;2022-12-17T16:48:19;0.90;88.90
38480;DHT22;62333;51.980;5.934;2022-12-17T16:50:45;0.90;88.90
38480;DHT22;62333;51.980;5.934;2022-12-17T16:53:11;1.00;88.90
38480;DHT22;62333;51.980;5.934;2022-12-17T16:55:45;0.90;89.30
38480;DHT22;62333;51.980;5.934;2022-12-17T16:58:12;1.00;88.80
38480;DHT22;62333;51.980;5.934;2022-12-17T17:00:38;0.90;88.70
38480;DHT22;62333;51.980;5.934;2022-12-17T17:03:05;1.00;88.80
38480;DHT22;62333;51.980;5.934;2022-12-17T17:05:35;0.90;88.60
38480;DHT22;62333;51.980;5.934;2022-12-17T17:08:01;1.00;88.60
38480;DHT22;62333;51.980;5.934;2022-12-17T17:10:28;0.90;88.50
38480;DHT22;62333;51.980;5.934;2022-12-17T17:12:54;0.90;88.60
38480;DHT22;62333;51.980;5.934;2022-12-17T17:15:21;0.90;88.70
38480;DHT22;62333;51.980;5.934;2022-12-17T17:17:47;0.90;88.80
38480;DHT22;62333;51.980;5.934;2022-12-17T17:20:14;0.80;88.90
38480;DHT22;62333;51.980;5.934;2022-12-17T17:22:40;0.90;88.90
38480;DHT22;62333;51.980;5.934;2022-12-17T17:25:06;0.90;88.90
38480;DHT22;62333;51.980;5.934;2022-12-17T17:27:32;0.80;88.80
38480;DHT22;62333;51.980;5.934;2022-12-17T17:29:58;0.90;88.90
38480;DHT22;62333;51.980;5.934;2022-12-17T17:32:24;0.80;88.90
38480;DHT22;62333;51.980;5.934;2022-12-17T17:34:50;0.70;89.00
38480;DHT22;62333;51.980;5.934;2022-12-17T17:37:16;0.70;89.20
38480;DHT22;62333;51.980;5.934;2022-12-17T17:39:42;0.70;89.10
38480;DHT22;62333;51.980;5.934;2022-12-17T17:42:08;0.70;89.20
38480;DHT22;62333;51.980;5.934;2022-12-17T17:44:34;0.70;89.20
38480;DHT22;62333;51.980;5.934;2022-12-17T17:46:59;0.60;89.10
38480;DHT22;62333;51.980;5.934;2022-12-17T17:49:25;0.60;89.20
38480;DHT22;62333;51.980;5.934;2022-12-17T17:51:51;0.50;89.40
38480;DHT22;62333;51.980;5.934;2022-12-17T17:54:17;0.50;89.50
38480;DHT22;62333;51.980;5.934;2022-12-17T17:56:43;0.50;89.70
38480;DHT22;62333;51.980;5.934;2022-12-17T17:59:13;0.40;89.60
38480;DHT22;62333;51.980;5.934;2022-12-17T18:01:44;0.40;89.70
38480;DHT22;62333;51.980;5.934;2022-12-17T18:04:13;0.30;89.70
38480;DHT22;62333;51.980;5.934;2022-12-17T18:06:41;0.30;89.80
38480;DHT22;62333;51.980;5.934;2022-12-17T18:09:07;0.30;89.80
38480;DHT22;62333;51.980;5.934;2022-12-17T18:11:34;0.40;89.90
38480;DHT22;62333;51.980;5.934;2022-12-17T18:14:01;0.30;90.00
38480;DHT22;62333;51.980;5.934;2022-12-17T18:16:35;0.30;90.00
38480;DHT22;62333;51.980;5.934;2022-12-17T18:19:03;0.30;90.10
38480;DHT22;62333;51.980;5.934;2022-12-17T18:21:30;0.20;90.00
38480;DHT22;62333;51.980;5.934;2022-12-17T18:24:01;0.20;90.10
38480;DHT22;62333;51.980;5.934;2022-12-17T18:26:29;0.20;90.10
38480;DHT22;62333;51.980;5.934;2022-12-17T18:28:56;0.20;90.00
38480;DHT22;62333;51.980;5.934;2022-12-17T18:31:25;0.20;90.00
38480;DHT22;62333;51.980;5.934;2022-12-17T18:33:54;0.20;90.10
38480;DHT22;62333;51.980;5.934;2022-12-17T18:36:23;0.10;90.00
38480;DHT22;62333;51.980;5.934;2022-12-17T18:39:00;0.10;90.10